San Diego, CA

17:16 PST le 28 novembre 2014 (GMT -0800)
Embarcadero North | Change Station
CLOSE
Current Station
Stations météorologiques personnelles
Location: San Diego, CA
Altitude: 10 ft
Stations météo à proximité
Avis météorologiques actifs: Beach Hazard Statement Préavis actif: Record Report

Alt. 10 ft 32.72 °N, 117.17 °W | Updated 4 seconds ago

Clear
Ciel dégagé
69.8 ° F
Paraît 69.8 ° F
N
0.0
Vent Variable Vent de NE
Gusts 0.0 mph

Aujourd'hui
Haut(e) -- | Bas -- ° F
--% Risque de précip.
Hier
Haut(e) -- | Bas -- ° F
Precip. -- pouce
6:30 AM 4:42 PM
Lune montante, 46% visible
Pression 29.90 pouce
Visibilité 7.0 Miles terrestres
Nuages Ciel dégagé
Point de rosée 51 ° F
Humidité 51%
Précipitations 0.00 pouce
Profondeur de la couche neigeuse Non disponible.
UV 0 sur 12
Pollen 2.20 sur 12
Qualité de l'air Non disponible.
Flu Activity Non disponible.
METAR KSAN 290051Z 17003KT 7SM CLR 21/14 A2990 RMK AO2 SLP124 T02060144

More Conditions Fewer Conditions

Pression 29.90 pouce
Visibilité 7.0 Miles terrestres
Nuages Ciel dégagé
Point de rosée 51 ° F
Humidité 51%
Précipitations 0.00 pouce
Profondeur de la couche neigeuse Non disponible.
UV 0 sur 12
Pollen 2.20 sur 12
Qualité de l'air Non disponible.
Flu Activity Non disponible.
METAR KSAN 290051Z 17003KT 7SM CLR 21/14 A2990 RMK AO2 SLP124 T02060144

More Conditions Fewer Conditions

10-Day Weather Forecast

Almanac

Astronomie

Nov. 28, 2014 Lever Coucher
Temps réel
Crépuscule civil
Crépuscule nautique
Crépuscule astronomique
Lune
Durée de lumière visible
Longueur du jour
Tomorrow will be .
, % of the Moon is Illuminated

Extrêmes aujourd'hui

State Highs State Lows

Community

WunderPhotos

Upload Photos

1,774,361 Photos téléchargées !

WunderBlogs® & News

Nearby

Qualité de l'air

  Qualité de l'air Indice de la qualité de l'air Polluant
Not available.

Épaisseur de neige

Station Depth Altitude

Activité sismique

Ville Distance Mag. Time & Date
Minimum magnitude displayed is 2.5.

Températures des eaux côtières

Lieu Température

Stations météo à proximité